sensor_id;sensor_type;location;lat;lon;timestamp;temperature;humidity
1391;DHT22;690;51.454;7.194;2023-08-21T00:01:38;16.70;99.90
1391;DHT22;690;51.454;7.194;2023-08-21T00:04:05;16.70;99.90
1391;DHT22;690;51.454;7.194;2023-08-21T00:06:32;16.70;99.90
1391;DHT22;690;51.454;7.194;2023-08-21T00:09:00;16.60;1.00
1391;DHT22;690;51.454;7.194;2023-08-21T00:11:27;16.50;1.00
1391;DHT22;690;51.454;7.194;2023-08-21T00:13:54;16.50;1.00
1391;DHT22;690;51.454;7.194;2023-08-21T00:16:21;16.40;1.00
1391;DHT22;690;51.454;7.194;2023-08-21T00:18:47;16.40;1.00
1391;DHT22;690;51.454;7.194;2023-08-21T00:21:14;16.40;1.00
1391;DHT22;690;51.454;7.194;2023-08-21T00:23:41;16.40;1.00
1391;DHT22;690;51.454;7.194;2023-08-21T00:26:09;16.30;1.00
1391;DHT22;690;51.454;7.194;2023-08-21T00:28:36;16.30;1.00
1391;DHT22;690;51.454;7.194;2023-08-21T00:31:04;16.40;1.00
1391;DHT22;690;51.454;7.194;2023-08-21T00:33:32;16.40;1.00
1391;DHT22;690;51.454;7.194;2023-08-21T00:35:59;16.40;16.30
1391;DHT22;690;51.454;7.194;2023-08-21T00:38:26;16.40;6.70
1391;DHT22;690;51.454;7.194;2023-08-21T00:40:53;16.30;1.00
1391;DHT22;690;51.454;7.194;2023-08-21T00:43:21;16.30;1.00
1391;DHT22;690;51.454;7.194;2023-08-21T00:45:50;16.30;1.00
1391;DHT22;690;51.454;7.194;2023-08-21T00:48:17;16.30;1.00
1391;DHT22;690;51.454;7.194;2023-08-21T00:50:45;16.30;6.10
1391;DHT22;690;51.454;7.194;2023-08-21T00:53:12;16.20;92.60
1391;DHT22;690;51.454;7.194;2023-08-21T00:55:40;16.20;99.90
1391;DHT22;690;51.454;7.194;2023-08-21T00:58:09;16.20;99.90
1391;DHT22;690;51.454;7.194;2023-08-21T01:00:38;16.20;99.90
1391;DHT22;690;51.454;7.194;2023-08-21T01:03:06;16.20;99.90
1391;DHT22;690;51.454;7.194;2023-08-21T01:05:35;16.20;98.20
1391;DHT22;690;51.454;7.194;2023-08-21T01:08:04;16.20;92.00
1391;DHT22;690;51.454;7.194;2023-08-21T01:10:45;16.10;99.90
1391;DHT22;690;51.454;7.194;2023-08-21T01:13:24;16.10;99.90
1391;DHT22;690;51.454;7.194;2023-08-21T01:15:56;16.10;99.90
1391;DHT22;690;51.454;7.194;2023-08-21T01:18:24;16.10;99.90
1391;DHT22;690;51.454;7.194;2023-08-21T01:20:52;16.00;99.90
1391;DHT22;690;51.454;7.194;2023-08-21T01:23:32;16.00;99.90
1391;DHT22;690;51.454;7.194;2023-08-21T01:25:59;16.00;99.90
1391;DHT22;690;51.454;7.194;2023-08-21T01:28:26;16.10;99.90
1391;DHT22;690;51.454;7.194;2023-08-21T01:30:59;16.10;99.90
1391;DHT22;690;51.454;7.194;2023-08-21T01:33:30;16.10;99.90
1391;DHT22;690;51.454;7.194;2023-08-21T01:36:02;16.10;99.90
1391;DHT22;690;51.454;7.194;2023-08-21T01:38:33;16.10;99.90
1391;DHT22;690;51.454;7.194;2023-08-21T01:41:01;16.10;99.90
1391;DHT22;690;51.454;7.194;2023-08-21T01:43:28;16.10;99.90
1391;DHT22;690;51.454;7.194;2023-08-21T01:45:55;16.00;99.90
1391;DHT22;690;51.454;7.194;2023-08-21T01:48:22;16.00;99.90
1391;DHT22;690;51.454;7.194;2023-08-21T01:50:48;16.10;99.90
1391;DHT22;690;51.454;7.194;2023-08-21T01:53:15;16.00;99.90
1391;DHT22;690;51.454;7.194;2023-08-21T01:55:44;16.00;99.90
1391;DHT22;690;51.454;7.194;2023-08-21T01:58:10;15.90;99.90
1391;DHT22;690;51.454;7.194;2023-08-21T02:00:37;16.00;99.90
1391;DHT22;690;51.454;7.194;2023-08-21T02:03:04;15.90;99.90
1391;DHT22;690;51.454;7.194;2023-08-21T02:05:37;16.00;99.90
1391;DHT22;690;51.454;7.194;2023-08-21T02:08:04;16.00;99.90
1391;DHT22;690;51.454;7.194;2023-08-21T02:10:31;16.00;99.90
1391;DHT22;690;51.454;7.194;2023-08-21T02:13:00;16.00;99.90
1391;DHT22;690;51.454;7.194;2023-08-21T02:15:27;16.00;99.90
1391;DHT22;690;51.454;7.194;2023-08-21T02:17:54;16.00;99.90
1391;DHT22;690;51.454;7.194;2023-08-21T02:20:21;16.00;6.60
1391;DHT22;690;51.454;7.194;2023-08-21T02:22:48;16.00;1.00
1391;DHT22;690;51.454;7.194;2023-08-21T02:25:15;16.00;1.00
1391;DHT22;690;51.454;7.194;2023-08-21T02:27:42;15.90;1.00
1391;DHT22;690;51.454;7.194;2023-08-21T02:30:11;15.90;1.00
1391;DHT22;690;51.454;7.194;2023-08-21T02:32:38;15.90;1.00
1391;DHT22;690;51.454;7.194;2023-08-21T02:35:06;15.80;23.60
1391;DHT22;690;51.454;7.194;2023-08-21T02:37:33;15.80;99.90
1391;DHT22;690;51.454;7.194;2023-08-21T02:40:05;15.70;99.90
1391;DHT22;690;51.454;7.194;2023-08-21T02:42:34;15.70;99.90
1391;DHT22;690;51.454;7.194;2023-08-21T02:45:01;15.60;99.90
1391;DHT22;690;51.454;7.194;2023-08-21T02:47:35;15.70;99.90
1391;DHT22;690;51.454;7.194;2023-08-21T02:50:02;15.70;99.90
1391;DHT22;690;51.454;7.194;2023-08-21T02:52:29;15.60;99.90
1391;DHT22;690;51.454;7.194;2023-08-21T02:54:56;15.60;99.90
1391;DHT22;690;51.454;7.194;2023-08-21T02:57:23;15.60;99.90
1391;DHT22;690;51.454;7.194;2023-08-21T02:59:51;15.50;99.90
1391;DHT22;690;51.454;7.194;2023-08-21T03:02:18;15.60;99.90
1391;DHT22;690;51.454;7.194;2023-08-21T03:04:46;15.60;1.00
1391;DHT22;690;51.454;7.194;2023-08-21T03:07:13;15.60;1.00
1391;DHT22;690;51.454;7.194;2023-08-21T03:09:40;15.50;1.00
1391;DHT22;690;51.454;7.194;2023-08-21T03:12:08;15.50;1.00
1391;DHT22;690;51.454;7.194;2023-08-21T03:14:35;15.50;1.00
1391;DHT22;690;51.454;7.194;2023-08-21T03:17:02;15.50;1.00
1391;DHT22;690;51.454;7.194;2023-08-21T03:19:29;15.50;1.00
1391;DHT22;690;51.454;7.194;2023-08-21T03:21:57;15.40;1.00
1391;DHT22;690;51.454;7.194;2023-08-21T03:24:24;15.40;1.00
1391;DHT22;690;51.454;7.194;2023-08-21T03:26:51;15.40;1.00
1391;DHT22;690;51.454;7.194;2023-08-21T03:29:17;15.40;1.00
1391;DHT22;690;51.454;7.194;2023-08-21T03:31:49;15.40;40.80
1391;DHT22;690;51.454;7.194;2023-08-21T03:34:16;15.40;99.90
1391;DHT22;690;51.454;7.194;2023-08-21T03:36:43;15.40;99.90
1391;DHT22;690;51.454;7.194;2023-08-21T03:39:11;15.40;99.90
1391;DHT22;690;51.454;7.194;2023-08-21T03:41:38;15.40;99.90
1391;DHT22;690;51.454;7.194;2023-08-21T03:44:06;15.50;99.90
1391;DHT22;690;51.454;7.194;2023-08-21T03:46:32;15.50;99.90
1391;DHT22;690;51.454;7.194;2023-08-21T03:49:00;15.50;99.90
1391;DHT22;690;51.454;7.194;2023-08-21T03:51:26;15.40;99.90
1391;DHT22;690;51.454;7.194;2023-08-21T03:53:53;15.40;99.90
1391;DHT22;690;51.454;7.194;2023-08-21T03:56:22;15.30;99.90
1391;DHT22;690;51.454;7.194;2023-08-21T03:58:49;15.30;99.90
1391;DHT22;690;51.454;7.194;2023-08-21T04:01:15;15.30;99.90
1391;DHT22;690;51.454;7.194;2023-08-21T04:03:42;15.30;99.90
1391;DHT22;690;51.454;7.194;2023-08-21T04:06:09;15.30;99.90
1391;DHT22;690;51.454;7.194;2023-08-21T04:08:36;15.30;99.90
1391;DHT22;690;51.454;7.194;2023-08-21T04:11:03;15.30;99.90
1391;DHT22;690;51.454;7.194;2023-08-21T04:13:32;15.30;99.90
1391;DHT22;690;51.454;7.194;2023-08-21T04:15:59;15.30;99.90
1391;DHT22;690;51.454;7.194;2023-08-21T04:18:26;15.30;99.90
1391;DHT22;690;51.454;7.194;2023-08-21T04:20:53;15.30;99.90
1391;DHT22;690;51.454;7.194;2023-08-21T04:23:19;15.30;99.90
1391;DHT22;690;51.454;7.194;2023-08-21T04:25:46;15.30;99.90
1391;DHT22;690;51.454;7.194;2023-08-21T04:28:13;15.30;99.90
1391;DHT22;690;51.454;7.194;2023-08-21T04:30:41;15.30;75.10
1391;DHT22;690;51.454;7.194;2023-08-21T04:33:08;15.30;59.90
1391;DHT22;690;51.454;7.194;2023-08-21T04:35:37;15.30;16.30
1391;DHT22;690;51.454;7.194;2023-08-21T04:38:04;15.30;1.00
1391;DHT22;690;51.454;7.194;2023-08-21T04:40:32;15.30;1.00
1391;DHT22;690;51.454;7.194;2023-08-21T04:42:59;15.40;1.00
1391;DHT22;690;51.454;7.194;2023-08-21T04:45:26;15.40;1.00
1391;DHT22;690;51.454;7.194;2023-08-21T04:47:54;15.30;1.00
1391;DHT22;690;51.454;7.194;2023-08-21T04:50:21;15.40;1.00
1391;DHT22;690;51.454;7.194;2023-08-21T04:52:48;15.40;1.00
1391;DHT22;690;51.454;7.194;2023-08-21T04:55:16;15.40;1.00
1391;DHT22;690;51.454;7.194;2023-08-21T04:57:42;15.50;1.00
1391;DHT22;690;51.454;7.194;2023-08-21T05:00:10;15.50;1.00
1391;DHT22;690;51.454;7.194;2023-08-21T05:02:37;15.60;1.00
1391;DHT22;690;51.454;7.194;2023-08-21T05:05:06;15.60;99.90
1391;DHT22;690;51.454;7.194;2023-08-21T05:07:35;15.70;99.90
1391;DHT22;690;51.454;7.194;2023-08-21T05:10:02;15.70;99.90
1391;DHT22;690;51.454;7.194;2023-08-21T05:12:29;15.70;99.90
1391;DHT22;690;51.454;7.194;2023-08-21T05:14:56;15.80;1.00
1391;DHT22;690;51.454;7.194;2023-08-21T05:17:24;15.90;1.00
1391;DHT22;690;51.454;7.194;2023-08-21T05:19:52;16.10;1.00
1391;DHT22;690;51.454;7.194;2023-08-21T05:22:20;16.30;99.90
1391;DHT22;690;51.454;7.194;2023-08-21T05:24:47;16.40;99.90
1391;DHT22;690;51.454;7.194;2023-08-21T05:27:14;16.50;99.90
1391;DHT22;690;51.454;7.194;2023-08-21T05:29:41;16.50;38.70
1391;DHT22;690;51.454;7.194;2023-08-21T05:32:08;16.50;1.00
1391;DHT22;690;51.454;7.194;2023-08-21T05:34:35;16.40;1.00
1391;DHT22;690;51.454;7.194;2023-08-21T05:37:02;16.40;1.00
1391;DHT22;690;51.454;7.194;2023-08-21T05:39:30;16.40;1.00
1391;DHT22;690;51.454;7.194;2023-08-21T05:41:57;16.30;1.00
1391;DHT22;690;51.454;7.194;2023-08-21T05:44:24;16.30;1.00
1391;DHT22;690;51.454;7.194;2023-08-21T05:46:51;16.30;1.00
1391;DHT22;690;51.454;7.194;2023-08-21T05:49:18;16.30;1.00
1391;DHT22;690;51.454;7.194;2023-08-21T05:51:45;16.40;1.00
1391;DHT22;690;51.454;7.194;2023-08-21T05:54:12;16.40;1.00
1391;DHT22;690;51.454;7.194;2023-08-21T05:56:40;16.40;1.00
1391;DHT22;690;51.454;7.194;2023-08-21T05:59:10;16.50;1.00
1391;DHT22;690;51.454;7.194;2023-08-21T06:01:37;16.50;9.50
1391;DHT22;690;51.454;7.194;2023-08-21T06:04:04;16.60;44.70
1391;DHT22;690;51.454;7.194;2023-08-21T06:06:30;16.80;37.00
1391;DHT22;690;51.454;7.194;2023-08-21T06:08:57;16.90;11.00
1391;DHT22;690;51.454;7.194;2023-08-21T06:11:24;17.10;1.00
1391;DHT22;690;51.454;7.194;2023-08-21T06:13:52;17.20;1.00
1391;DHT22;690;51.454;7.194;2023-08-21T06:16:19;17.30;1.00
1391;DHT22;690;51.454;7.194;2023-08-21T06:18:46;17.50;1.00
1391;DHT22;690;51.454;7.194;2023-08-21T06:21:13;17.60;1.00
1391;DHT22;690;51.454;7.194;2023-08-21T06:23:40;17.70;1.00
1391;DHT22;690;51.454;7.194;2023-08-21T06:26:07;17.80;1.00
1391;DHT22;690;51.454;7.194;2023-08-21T06:28:33;17.90;99.90
1391;DHT22;690;51.454;7.194;2023-08-21T06:31:02;18.00;99.90
1391;DHT22;690;51.454;7.194;2023-08-21T06:33:32;18.10;99.90
1391;DHT22;690;51.454;7.194;2023-08-21T06:35:59;18.20;99.90
1391;DHT22;690;51.454;7.194;2023-08-21T06:38:26;18.30;99.90
1391;DHT22;690;51.454;7.194;2023-08-21T06:40:53;18.40;94.10
1391;DHT22;690;51.454;7.194;2023-08-21T06:43:20;18.40;35.70
1391;DHT22;690;51.454;7.194;2023-08-21T06:45:47;18.40;24.90
1391;DHT22;690;51.454;7.194;2023-08-21T06:48:15;18.50;1.00
1391;DHT22;690;51.454;7.194;2023-08-21T06:50:44;18.50;1.00
1391;DHT22;690;51.454;7.194;2023-08-21T06:53:11;18.50;1.00
1391;DHT22;690;51.454;7.194;2023-08-21T06:55:38;18.50;1.00
1391;DHT22;690;51.454;7.194;2023-08-21T06:58:05;18.50;1.00
1391;DHT22;690;51.454;7.194;2023-08-21T07:00:32;18.50;1.00
1391;DHT22;690;51.454;7.194;2023-08-21T07:02:59;18.60;1.00
1391;DHT22;690;51.454;7.194;2023-08-21T07:05:27;18.80;1.00
1391;DHT22;690;51.454;7.194;2023-08-21T07:07:54;18.90;1.00
1391;DHT22;690;51.454;7.194;2023-08-21T07:10:21;19.00;1.00
1391;DHT22;690;51.454;7.194;2023-08-21T07:12:48;19.20;1.00
1391;DHT22;690;51.454;7.194;2023-08-21T07:15:15;19.30;1.00
1391;DHT22;690;51.454;7.194;2023-08-21T07:17:42;19.50;1.00
1391;DHT22;690;51.454;7.194;2023-08-21T07:20:09;19.60;1.00
1391;DHT22;690;51.454;7.194;2023-08-21T07:22:39;19.70;1.00
1391;DHT22;690;51.454;7.194;2023-08-21T07:25:06;20.00;1.00
1391;DHT22;690;51.454;7.194;2023-08-21T07:27:33;20.20;1.00
1391;DHT22;690;51.454;7.194;2023-08-21T07:30:00;20.30;1.00
1391;DHT22;690;51.454;7.194;2023-08-21T07:32:27;20.50;1.00
1391;DHT22;690;51.454;7.194;2023-08-21T07:34:54;20.60;1.00
1391;DHT22;690;51.454;7.194;2023-08-21T07:37:21;20.80;1.00
1391;DHT22;690;51.454;7.194;2023-08-21T07:39:49;21.00;1.00
1391;DHT22;690;51.454;7.194;2023-08-21T07:42:17;21.00;1.00
1391;DHT22;690;51.454;7.194;2023-08-21T07:44:44;21.00;1.00
1391;DHT22;690;51.454;7.194;2023-08-21T07:47:11;21.10;1.00
1391;DHT22;690;51.454;7.194;2023-08-21T07:49:38;21.20;1.00
1391;DHT22;690;51.454;7.194;2023-08-21T07:52:05;21.30;1.00
1391;DHT22;690;51.454;7.194;2023-08-21T07:54:32;21.50;99.90
1391;DHT22;690;51.454;7.194;2023-08-21T07:57:00;21.50;99.90
1391;DHT22;690;51.454;7.194;2023-08-21T07:59:27;21.50;99.90
1391;DHT22;690;51.454;7.194;2023-08-21T08:01:54;21.60;99.90
1391;DHT22;690;51.454;7.194;2023-08-21T08:04:21;21.50;99.90
1391;DHT22;690;51.454;7.194;2023-08-21T08:06:48;21.50;99.90
1391;DHT22;690;51.454;7.194;2023-08-21T08:09:15;21.30;99.90
1391;DHT22;690;51.454;7.194;2023-08-21T08:11:42;21.10;99.90
1391;DHT22;690;51.454;7.194;2023-08-21T08:14:10;21.00;99.90
1391;DHT22;690;51.454;7.194;2023-08-21T08:16:37;20.80;99.90
1391;DHT22;690;51.454;7.194;2023-08-21T08:19:04;20.70;99.90
1391;DHT22;690;51.454;7.194;2023-08-21T08:21:31;20.60;99.90
1391;DHT22;690;51.454;7.194;2023-08-21T08:23:58;20.60;99.90
1391;DHT22;690;51.454;7.194;2023-08-21T08:26:24;20.50;99.90
1391;DHT22;690;51.454;7.194;2023-08-21T08:28:51;20.50;99.90
1391;DHT22;690;51.454;7.194;2023-08-21T08:31:20;20.50;99.90
1391;DHT22;690;51.454;7.194;2023-08-21T08:33:49;20.60;99.90
1391;DHT22;690;51.454;7.194;2023-08-21T08:36:16;20.60;99.90
1391;DHT22;690;51.454;7.194;2023-08-21T08:38:42;20.80;99.90
1391;DHT22;690;51.454;7.194;2023-08-21T08:41:14;20.90;99.90
1391;DHT22;690;51.454;7.194;2023-08-21T08:43:43;21.00;99.90
1391;DHT22;690;51.454;7.194;2023-08-21T08:46:11;21.20;99.90
1391;DHT22;690;51.454;7.194;2023-08-21T08:48:39;21.30;99.90
1391;DHT22;690;51.454;7.194;2023-08-21T08:51:07;21.40;99.90
1391;DHT22;690;51.454;7.194;2023-08-21T08:53:34;21.50;99.90
1391;DHT22;690;51.454;7.194;2023-08-21T08:56:02;21.50;99.90
1391;DHT22;690;51.454;7.194;2023-08-21T08:58:29;21.50;99.90
1391;DHT22;690;51.454;7.194;2023-08-21T09:00:56;21.40;99.90
1391;DHT22;690;51.454;7.194;2023-08-21T09:03:23;21.40;99.90
1391;DHT22;690;51.454;7.194;2023-08-21T09:05:51;21.50;99.90
1391;DHT22;690;51.454;7.194;2023-08-21T09:08:19;21.50;99.90
1391;DHT22;690;51.454;7.194;2023-08-21T09:10:46;21.50;99.90
1391;DHT22;690;51.454;7.194;2023-08-21T09:13:14;21.50;99.90
1391;DHT22;690;51.454;7.194;2023-08-21T09:15:42;21.50;99.90
1391;DHT22;690;51.454;7.194;2023-08-21T09:18:10;21.50;99.90
1391;DHT22;690;51.454;7.194;2023-08-21T09:20:37;21.60;99.90
1391;DHT22;690;51.454;7.194;2023-08-21T09:23:06;21.60;99.90
1391;DHT22;690;51.454;7.194;2023-08-21T09:25:38;21.70;99.90
1391;DHT22;690;51.454;7.194;2023-08-21T09:28:06;21.70;99.90
1391;DHT22;690;51.454;7.194;2023-08-21T09:30:47;21.80;99.90
1391;DHT22;690;51.454;7.194;2023-08-21T09:33:17;22.00;99.90
1391;DHT22;690;51.454;7.194;2023-08-21T09:35:45;22.10;99.90
1391;DHT22;690;51.454;7.194;2023-08-21T09:38:13;22.20;99.90
1391;DHT22;690;51.454;7.194;2023-08-21T09:40:41;22.40;99.90
1391;DHT22;690;51.454;7.194;2023-08-21T09:43:09;22.50;99.90
1391;DHT22;690;51.454;7.194;2023-08-21T09:45:36;22.50;99.90
1391;DHT22;690;51.454;7.194;2023-08-21T09:48:04;22.60;99.90
1391;DHT22;690;51.454;7.194;2023-08-21T09:50:31;22.60;99.90
1391;DHT22;690;51.454;7.194;2023-08-21T09:52:59;22.70;99.90
1391;DHT22;690;51.454;7.194;2023-08-21T09:55:28;22.80;99.90
1391;DHT22;690;51.454;7.194;2023-08-21T09:57:59;22.90;99.90
1391;DHT22;690;51.454;7.194;2023-08-21T10:00:29;23.10;99.90
1391;DHT22;690;51.454;7.194;2023-08-21T10:02:59;23.30;99.90
1391;DHT22;690;51.454;7.194;2023-08-21T10:05:27;23.50;99.90
1391;DHT22;690;51.454;7.194;2023-08-21T10:07:56;23.80;99.90
1391;DHT22;690;51.454;7.194;2023-08-21T10:10:23;24.00;99.90
1391;DHT22;690;51.454;7.194;2023-08-21T10:12:52;24.30;99.90
1391;DHT22;690;51.454;7.194;2023-08-21T10:15:19;24.40;99.90
1391;DHT22;690;51.454;7.194;2023-08-21T10:17:46;24.40;99.90
1391;DHT22;690;51.454;7.194;2023-08-21T10:20:13;24.40;99.90
1391;DHT22;690;51.454;7.194;2023-08-21T10:22:48;24.50;99.90
1391;DHT22;690;51.454;7.194;2023-08-21T10:25:16;24.40;99.90
1391;DHT22;690;51.454;7.194;2023-08-21T10:27:46;24.40;99.90
1391;DHT22;690;51.454;7.194;2023-08-21T10:30:19;24.50;99.90
1391;DHT22;690;51.454;7.194;2023-08-21T10:32:47;24.50;99.90
1391;DHT22;690;51.454;7.194;2023-08-21T10:35:15;24.60;99.90
1391;DHT22;690;51.454;7.194;2023-08-21T10:38:12;24.60;99.90
1391;DHT22;690;51.454;7.194;2023-08-21T10:41:03;24.70;99.90
1391;DHT22;690;51.454;7.194;2023-08-21T10:43:37;24.80;99.90
1391;DHT22;690;51.454;7.194;2023-08-21T10:46:06;24.90;99.90
1391;DHT22;690;51.454;7.194;2023-08-21T10:48:34;25.10;99.90
1391;DHT22;690;51.454;7.194;2023-08-21T10:51:02;25.20;99.90
1391;DHT22;690;51.454;7.194;2023-08-21T10:53:31;25.30;99.90
1391;DHT22;690;51.454;7.194;2023-08-21T10:56:01;25.10;99.90
1391;DHT22;690;51.454;7.194;2023-08-21T10:58:28;25.10;99.90
1391;DHT22;690;51.454;7.194;2023-08-21T11:01:00;25.20;99.90
1391;DHT22;690;51.454;7.194;2023-08-21T11:03:29;25.10;99.90
1391;DHT22;690;51.454;7.194;2023-08-21T11:06:02;25.10;99.90
1391;DHT22;690;51.454;7.194;2023-08-21T11:08:31;25.10;99.90
1391;DHT22;690;51.454;7.194;2023-08-21T11:10:58;25.20;99.90
1391;DHT22;690;51.454;7.194;2023-08-21T11:13:25;25.30;99.90
1391;DHT22;690;51.454;7.194;2023-08-21T11:15:58;25.20;99.90
1391;DHT22;690;51.454;7.194;2023-08-21T11:18:35;25.20;99.90
1391;DHT22;690;51.454;7.194;2023-08-21T11:21:09;25.10;99.90
1391;DHT22;690;51.454;7.194;2023-08-21T11:23:38;25.00;99.90
1391;DHT22;690;51.454;7.194;2023-08-21T11:26:06;24.80;99.90
1391;DHT22;690;51.454;7.194;2023-08-21T11:28:36;24.70;99.90
1391;DHT22;690;51.454;7.194;2023-08-21T11:31:05;24.70;99.90
1391;DHT22;690;51.454;7.194;2023-08-21T11:33:37;24.60;99.90
1391;DHT22;690;51.454;7.194;2023-08-21T11:36:05;24.50;99.90
1391;DHT22;690;51.454;7.194;2023-08-21T11:38:31;24.40;99.90
1391;DHT22;690;51.454;7.194;2023-08-21T11:40:59;24.40;99.90
1391;DHT22;690;51.454;7.194;2023-08-21T11:43:35;24.40;99.90
1391;DHT22;690;51.454;7.194;2023-08-21T11:46:02;24.30;99.90
1391;DHT22;690;51.454;7.194;2023-08-21T11:48:30;24.40;99.90
1391;DHT22;690;51.454;7.194;2023-08-21T11:50:58;24.50;99.90
1391;DHT22;690;51.454;7.194;2023-08-21T11:53:35;24.50;99.90
1391;DHT22;690;51.454;7.194;2023-08-21T11:56:03;24.50;99.90
1391;DHT22;690;51.454;7.194;2023-08-21T11:58:30;24.50;99.90
1391;DHT22;690;51.454;7.194;2023-08-21T12:01:03;24.70;99.90
1391;DHT22;690;51.454;7.194;2023-08-21T12:03:30;25.00;99.90
1391;DHT22;690;51.454;7.194;2023-08-21T12:05:59;25.40;99.90
1391;DHT22;690;51.454;7.194;2023-08-21T12:08:30;25.70;99.90
1391;DHT22;690;51.454;7.194;2023-08-21T12:10:57;25.90;99.90
1391;DHT22;690;51.454;7.194;2023-08-21T12:13:24;25.90;99.90
1391;DHT22;690;51.454;7.194;2023-08-21T12:15:51;26.10;99.90
1391;DHT22;690;51.454;7.194;2023-08-21T12:18:17;26.10;99.90
1391;DHT22;690;51.454;7.194;2023-08-21T12:20:44;26.20;99.90
1391;DHT22;690;51.454;7.194;2023-08-21T12:23:13;26.30;99.90
1391;DHT22;690;51.454;7.194;2023-08-21T12:25:40;26.20;99.90
1391;DHT22;690;51.454;7.194;2023-08-21T12:28:07;26.10;99.90
1391;DHT22;690;51.454;7.194;2023-08-21T12:30:34;25.90;99.90
1391;DHT22;690;51.454;7.194;2023-08-21T12:33:02;25.70;99.90
1391;DHT22;690;51.454;7.194;2023-08-21T12:35:29;25.60;99.90
1391;DHT22;690;51.454;7.194;2023-08-21T12:37:57;25.50;99.90
1391;DHT22;690;51.454;7.194;2023-08-21T12:40:25;25.40;99.90
1391;DHT22;690;51.454;7.194;2023-08-21T12:42:52;25.40;99.90
1391;DHT22;690;51.454;7.194;2023-08-21T12:45:19;25.50;99.90
1391;DHT22;690;51.454;7.194;2023-08-21T12:47:46;25.60;99.90
1391;DHT22;690;51.454;7.194;2023-08-21T12:50:13;25.70;99.90
1391;DHT22;690;51.454;7.194;2023-08-21T12:52:40;25.90;99.90
1391;DHT22;690;51.454;7.194;2023-08-21T12:55:08;26.10;99.90
1391;DHT22;690;51.454;7.194;2023-08-21T12:57:36;26.40;99.90
1391;DHT22;690;51.454;7.194;2023-08-21T13:00:03;26.50;99.90
1391;DHT22;690;51.454;7.194;2023-08-21T13:02:31;26.50;99.90
1391;DHT22;690;51.454;7.194;2023-08-21T13:04:58;26.40;99.90
1391;DHT22;690;51.454;7.194;2023-08-21T13:07:25;26.30;99.90
1391;DHT22;690;51.454;7.194;2023-08-21T13:09:52;26.20;99.90
1391;DHT22;690;51.454;7.194;2023-08-21T13:12:19;26.10;99.90
1391;DHT22;690;51.454;7.194;2023-08-21T13:14:47;26.30;99.90
1391;DHT22;690;51.454;7.194;2023-08-21T13:17:14;26.50;99.90
1391;DHT22;690;51.454;7.194;2023-08-21T13:19:41;26.60;99.90
1391;DHT22;690;51.454;7.194;2023-08-21T13:22:08;26.60;99.90
1391;DHT22;690;51.454;7.194;2023-08-21T13:24:35;26.50;99.90
1391;DHT22;690;51.454;7.194;2023-08-21T13:27:02;26.40;99.90
1391;DHT22;690;51.454;7.194;2023-08-21T13:29:29;26.40;99.90
1391;DHT22;690;51.454;7.194;2023-08-21T13:31:57;26.40;99.90
1391;DHT22;690;51.454;7.194;2023-08-21T13:34:24;26.40;99.90
1391;DHT22;690;51.454;7.194;2023-08-21T13:36:51;26.40;99.90
1391;DHT22;690;51.454;7.194;2023-08-21T13:39:18;26.70;99.90
1391;DHT22;690;51.454;7.194;2023-08-21T13:41:45;26.70;99.90
1391;DHT22;690;51.454;7.194;2023-08-21T13:44:12;26.80;99.90
1391;DHT22;690;51.454;7.194;2023-08-21T13:46:39;26.80;99.90
1391;DHT22;690;51.454;7.194;2023-08-21T13:49:07;26.70;99.90
1391;DHT22;690;51.454;7.194;2023-08-21T13:51:35;26.60;99.90
1391;DHT22;690;51.454;7.194;2023-08-21T13:54:01;26.40;99.90
1391;DHT22;690;51.454;7.194;2023-08-21T13:56:28;26.30;99.90
1391;DHT22;690;51.454;7.194;2023-08-21T13:58:55;26.40;99.90
1391;DHT22;690;51.454;7.194;2023-08-21T14:01:22;26.40;99.90
1391;DHT22;690;51.454;7.194;2023-08-21T14:03:49;26.40;99.90
1391;DHT22;690;51.454;7.194;2023-08-21T14:06:18;26.60;99.90
1391;DHT22;690;51.454;7.194;2023-08-21T14:08:45;26.90;99.90
1391;DHT22;690;51.454;7.194;2023-08-21T14:11:12;27.00;99.90
1391;DHT22;690;51.454;7.194;2023-08-21T14:13:39;26.90;99.90
1391;DHT22;690;51.454;7.194;2023-08-21T14:16:06;26.90;99.90
1391;DHT22;690;51.454;7.194;2023-08-21T14:18:33;27.00;99.90
1391;DHT22;690;51.454;7.194;2023-08-21T14:21:00;27.00;99.90
1391;DHT22;690;51.454;7.194;2023-08-21T14:23:28;27.00;99.90
1391;DHT22;690;51.454;7.194;2023-08-21T14:25:55;26.90;99.90
1391;DHT22;690;51.454;7.194;2023-08-21T14:28:22;26.80;99.90
1391;DHT22;690;51.454;7.194;2023-08-21T14:30:49;26.60;99.90
1391;DHT22;690;51.454;7.194;2023-08-21T14:33:17;26.20;99.90
1391;DHT22;690;51.454;7.194;2023-08-21T14:35:45;26.00;99.90
1391;DHT22;690;51.454;7.194;2023-08-21T14:38:12;25.90;99.90
1391;DHT22;690;51.454;7.194;2023-08-21T14:40:40;25.90;99.90
1391;DHT22;690;51.454;7.194;2023-08-21T14:43:07;25.80;99.90
1391;DHT22;690;51.454;7.194;2023-08-21T14:45:34;25.70;99.90
1391;DHT22;690;51.454;7.194;2023-08-21T14:48:01;25.80;99.90
1391;DHT22;690;51.454;7.194;2023-08-21T14:50:28;25.90;99.90
1391;DHT22;690;51.454;7.194;2023-08-21T14:52:55;26.00;99.90
1391;DHT22;690;51.454;7.194;2023-08-21T14:55:22;26.00;99.90
1391;DHT22;690;51.454;7.194;2023-08-21T14:57:50;26.10;99.90
1391;DHT22;690;51.454;7.194;2023-08-21T15:00:17;26.10;99.90
1391;DHT22;690;51.454;7.194;2023-08-21T15:02:44;26.30;99.90
1391;DHT22;690;51.454;7.194;2023-08-21T15:05:11;26.50;99.90
1391;DHT22;690;51.454;7.194;2023-08-21T15:07:41;26.90;99.90
1391;DHT22;690;51.454;7.194;2023-08-21T15:10:10;27.20;99.90
1391;DHT22;690;51.454;7.194;2023-08-21T15:12:37;27.30;99.90
1391;DHT22;690;51.454;7.194;2023-08-21T15:15:07;27.20;99.90
1391;DHT22;690;51.454;7.194;2023-08-21T15:17:34;26.80;99.90
1391;DHT22;690;51.454;7.194;2023-08-21T15:20:01;26.50;99.90
1391;DHT22;690;51.454;7.194;2023-08-21T15:22:30;26.20;99.90
1391;DHT22;690;51.454;7.194;2023-08-21T15:24:57;26.10;99.90
1391;DHT22;690;51.454;7.194;2023-08-21T15:27:24;26.10;99.90
1391;DHT22;690;51.454;7.194;2023-08-21T15:29:51;26.10;99.90
1391;DHT22;690;51.454;7.194;2023-08-21T15:32:20;26.10;99.90
1391;DHT22;690;51.454;7.194;2023-08-21T15:34:46;26.20;99.90
1391;DHT22;690;51.454;7.194;2023-08-21T15:37:13;26.20;99.90
1391;DHT22;690;51.454;7.194;2023-08-21T15:39:40;26.30;99.90
1391;DHT22;690;51.454;7.194;2023-08-21T15:42:07;26.30;99.90
1391;DHT22;690;51.454;7.194;2023-08-21T15:44:34;26.30;99.90
1391;DHT22;690;51.454;7.194;2023-08-21T15:47:01;26.30;99.90
1391;DHT22;690;51.454;7.194;2023-08-21T15:49:29;26.30;99.90
1391;DHT22;690;51.454;7.194;2023-08-21T15:51:56;26.20;99.90
1391;DHT22;690;51.454;7.194;2023-08-21T15:54:30;26.30;99.90
1391;DHT22;690;51.454;7.194;2023-08-21T15:56:57;26.70;99.90
1391;DHT22;690;51.454;7.194;2023-08-21T15:59:24;27.30;99.90
1391;DHT22;690;51.454;7.194;2023-08-21T16:01:51;28.20;99.90
1391;DHT22;690;51.454;7.194;2023-08-21T16:04:18;28.50;99.90
1391;DHT22;690;51.454;7.194;2023-08-21T16:06:47;28.50;99.90
1391;DHT22;690;51.454;7.194;2023-08-21T16:09:14;28.20;99.90
1391;DHT22;690;51.454;7.194;2023-08-21T16:11:41;28.10;99.90
1391;DHT22;690;51.454;7.194;2023-08-21T16:14:08;28.20;99.90
1391;DHT22;690;51.454;7.194;2023-08-21T16:16:35;28.30;99.90
1391;DHT22;690;51.454;7.194;2023-08-21T16:19:01;28.80;99.90
1391;DHT22;690;51.454;7.194;2023-08-21T16:21:28;29.80;99.90
1391;DHT22;690;51.454;7.194;2023-08-21T16:23:57;30.50;99.90
1391;DHT22;690;51.454;7.194;2023-08-21T16:26:24;31.40;99.90